Flight Track Log - Related Links

Times and Time Zones

All times are in EDT time to prevent confusion due to time zone crossing. See the CNS13 flight status page for this flight to view local times or setup timezone preferences in your user account.


Time Position Orientation Groundspeed Altitude Reporting Facility
EDT Latitude Longitude Course Direction KTS MPH feet Rate Location/Type
Fri 02:15:35 PM 26.0769 -80.1461 45° Northeast 111 128 700  Level Miami Center
Fri 02:16:55 PM 26.1111 -80.1075 45° Northeast 157 181 2,400 1,301 Climbing Miami Center
Fri 02:17:58 PM 26.1392 -80.0714 49° Northeast 160 184 3,800 780 Climbing Miami Center
Fri 02:18:58 PM 26.1672 -80.0236 57° Northeast 182 209 4,000 100 Climbing Miami Center
Fri 02:19:58 PM 26.1792 -79.9589 78° East 182 209 4,000 350 Level Miami Center
Fri 02:20:58 PM 26.1889 -79.8944 80° East 199 229 4,700 1,100 Climbing Miami Center
Fri 02:21:58 PM 26.1983 -79.8392 79° East 194 223 6,200 1,250 Climbing Miami Center
Fri 02:22:58 PM 26.2058 -79.7792 82° East 189 217 7,200 1,150 Climbing Miami Center
Fri 02:23:58 PM 26.2194 -79.7214 75° East 189 217 8,500 900 Climbing Miami Center
Fri 02:24:58 PM 26.2517 -79.6689 56° Northeast 189 217 9,000 300 Climbing Miami Center
Fri 02:25:58 PM 26.2906 -79.6119 53° Northeast 216 249 9,100 -50 Climbing Miami Center
Fri 02:26:58 PM 26.3003 -79.5333 82° East 226 260 8,900 400 Descending Miami Center
Fri 02:27:58 PM 26.3056 -79.4664 85° East 232 267 9,900 850 Climbing Miami Center
Fri 02:28:58 PM 26.3111 -79.3878 85° East 232 267 10,600 900 Climbing Miami Center
Fri 02:29:58 PM 26.3164 -79.3275 84° East 227 261 11,700 1,300 Climbing Miami Center
Fri 02:30:58 PM 26.3239 -79.2603 83° East 214 246 13,200 1,300 Climbing Miami Center
Fri 02:31:58 PM 26.3289 -79.2025 84° East 209 241 14,300 900 Climbing Miami Center
Fri 02:32:58 PM 26.3361 -79.1425 82° East 201 231 15,000 300 Climbing Miami Center
Fri 02:33:58 PM 26.3436 -79.0683 84° East 212 244 14,900  Descending Miami Center
Fri 02:34:58 PM 26.3511 -78.9850 84° East 240 276 15,000 50 Climbing Miami Center
Fri 02:35:58 PM 26.3564 -78.9064 86° East 251 289 15,000  Level Miami Center
Fri 02:36:58 PM 26.3636 -78.8253 84° East 256 295 15,000  Level Miami Center
Fri 02:37:58 PM 26.3711 -78.7442 84° East 256 295 15,000  Level Miami Center
Fri 02:38:58 PM 26.3783 -78.6631 84° East 256 295 15,000  Level Miami Center
Fri 02:39:58 PM 26.3878 -78.5797 83° East 261 300 15,000  Level Miami Center
Fri 02:40:58 PM 26.3928 -78.4986 86° East 261 300 15,000 -50 Level Miami Center
Fri 02:41:58 PM 26.4000 -78.4200 84° East 253 291 14,900 -250 Descending Miami Center
Fri 02:42:58 PM 26.4050 -78.3389 86° East 258 297 14,500 -650 Descending Miami Center
Fri 02:43:58 PM 26.4164 -78.2439 82° East 276 318 13,600 -950 Descending Miami Center
Fri 02:44:58 PM 26.4233 -78.1581 85° East 286 329 12,600 -950 Descending Miami Center
Fri 02:45:58 PM 26.4283 -78.0769 86° East 279 321 11,700 -950 Descending Miami Center
Fri 02:46:58 PM 26.4372 -77.9936 83° East 272 313 10,700 -1,000 Descending Miami Center
Fri 02:47:58 PM 26.4442 -77.9169 84° East 255 293 9,700 -1,000 Descending Miami Center
Fri 02:48:58 PM 26.4489 -77.8475 86° East 243 280 8,700 -1,000 Descending Miami Center
Fri 02:49:58 PM 26.4533 -77.7778 86° East 231 266 7,700 -850 Descending Miami Center
Fri 02:50:58 PM 26.4600 -77.7128 83° East 219 252 7,000 -350 Descending Miami Center
Fri 02:51:58 PM 26.4647 -77.6525 85° East 207 238 7,000  Level Miami Center
Fri 02:52:58 PM 26.4714 -77.5806 84° East 207 238 7,000  Level Miami Center

Login

Don't have an account? Register now (free) for customized features, flight alerts, and more!